sensor_id;sensor_type;location;lat;lon;timestamp;temperature;humidity
28773;DHT22;15925;51.222;5.678;2022-11-10T00:00:29;10.80;99.90
28773;DHT22;15925;51.222;5.678;2022-11-10T00:03:13;10.80;99.90
28773;DHT22;15925;51.222;5.678;2022-11-10T00:05:58;10.80;99.90
28773;DHT22;15925;51.222;5.678;2022-11-10T00:08:44;10.80;99.90
28773;DHT22;15925;51.222;5.678;2022-11-10T00:11:28;10.80;99.90
28773;DHT22;15925;51.222;5.678;2022-11-10T00:14:12;10.70;99.90
28773;DHT22;15925;51.222;5.678;2022-11-10T00:17:16;10.70;99.90
28773;DHT22;15925;51.222;5.678;2022-11-10T00:20:00;10.80;99.90
28773;DHT22;15925;51.222;5.678;2022-11-10T00:22:44;10.70;99.90
28773;DHT22;15925;51.222;5.678;2022-11-10T00:25:30;10.70;99.90
28773;DHT22;15925;51.222;5.678;2022-11-10T00:28:15;10.70;99.90
28773;DHT22;15925;51.222;5.678;2022-11-10T00:31:04;10.60;99.90
28773;DHT22;15925;51.222;5.678;2022-11-10T00:33:50;10.60;99.90
28773;DHT22;15925;51.222;5.678;2022-11-10T00:36:35;10.60;99.90
28773;DHT22;15925;51.222;5.678;2022-11-10T00:39:19;10.70;99.90
28773;DHT22;15925;51.222;5.678;2022-11-10T00:42:04;10.60;99.90
28773;DHT22;15925;51.222;5.678;2022-11-10T00:44:52;10.60;99.90
28773;DHT22;15925;51.222;5.678;2022-11-10T00:47:37;10.60;99.90
28773;DHT22;15925;51.222;5.678;2022-11-10T00:50:21;10.60;99.90
28773;DHT22;15925;51.222;5.678;2022-11-10T00:53:06;10.60;99.90
28773;DHT22;15925;51.222;5.678;2022-11-10T00:55:50;10.60;99.90
28773;DHT22;15925;51.222;5.678;2022-11-10T00:58:35;10.70;99.90
28773;DHT22;15925;51.222;5.678;2022-11-10T01:01:21;10.60;99.90
28773;DHT22;15925;51.222;5.678;2022-11-10T01:04:07;10.60;99.90
28773;DHT22;15925;51.222;5.678;2022-11-10T01:06:51;10.60;99.90
28773;DHT22;15925;51.222;5.678;2022-11-10T01:09:36;10.60;99.90
28773;DHT22;15925;51.222;5.678;2022-11-10T01:12:20;10.60;99.90
28773;DHT22;15925;51.222;5.678;2022-11-10T01:15:05;10.60;99.90
28773;DHT22;15925;51.222;5.678;2022-11-10T01:17:50;10.60;99.90
28773;DHT22;15925;51.222;5.678;2022-11-10T01:20:35;10.60;99.90
28773;DHT22;15925;51.222;5.678;2022-11-10T01:23:19;10.60;99.90
28773;DHT22;15925;51.222;5.678;2022-11-10T01:26:05;10.60;99.90
28773;DHT22;15925;51.222;5.678;2022-11-10T01:28:50;10.60;99.90
28773;DHT22;15925;51.222;5.678;2022-11-10T01:31:35;10.60;99.90
28773;DHT22;15925;51.222;5.678;2022-11-10T01:34:19;10.50;99.90
28773;DHT22;15925;51.222;5.678;2022-11-10T01:37:04;10.60;99.90
28773;DHT22;15925;51.222;5.678;2022-11-10T01:39:48;10.60;99.90
28773;DHT22;15925;51.222;5.678;2022-11-10T01:42:52;10.50;99.90
28773;DHT22;15925;51.222;5.678;2022-11-10T01:45:47;10.50;99.90
28773;DHT22;15925;51.222;5.678;2022-11-10T01:48:46;10.50;99.90
28773;DHT22;15925;51.222;5.678;2022-11-10T01:51:40;10.50;99.90
28773;DHT22;15925;51.222;5.678;2022-11-10T01:54:28;10.50;99.90
28773;DHT22;15925;51.222;5.678;2022-11-10T01:57:14;10.50;99.90
28773;DHT22;15925;51.222;5.678;2022-11-10T02:00:00;10.50;99.90
28773;DHT22;15925;51.222;5.678;2022-11-10T02:03:19;10.50;99.90
28773;DHT22;15925;51.222;5.678;2022-11-10T02:06:06;10.50;99.90
28773;DHT22;15925;51.222;5.678;2022-11-10T02:08:52;10.50;99.90
28773;DHT22;15925;51.222;5.678;2022-11-10T02:11:38;10.50;99.90
28773;DHT22;15925;51.222;5.678;2022-11-10T02:14:24;10.50;99.90
28773;DHT22;15925;51.222;5.678;2022-11-10T02:17:08;10.50;99.90
28773;DHT22;15925;51.222;5.678;2022-11-10T02:19:59;10.50;99.90
28773;DHT22;15925;51.222;5.678;2022-11-10T02:22:44;10.40;99.90
28773;DHT22;15925;51.222;5.678;2022-11-10T02:25:29;10.40;99.90
28773;DHT22;15925;51.222;5.678;2022-11-10T02:28:15;10.40;99.90
28773;DHT22;15925;51.222;5.678;2022-11-10T02:30:59;10.40;99.90
28773;DHT22;15925;51.222;5.678;2022-11-10T02:33:43;10.40;99.90
28773;DHT22;15925;51.222;5.678;2022-11-10T02:36:27;10.40;99.90
28773;DHT22;15925;51.222;5.678;2022-11-10T02:39:12;10.40;99.90
28773;DHT22;15925;51.222;5.678;2022-11-10T02:41:56;10.40;99.90
28773;DHT22;15925;51.222;5.678;2022-11-10T02:44:41;10.40;99.90
28773;DHT22;15925;51.222;5.678;2022-11-10T02:47:25;10.40;99.90
28773;DHT22;15925;51.222;5.678;2022-11-10T02:50:09;10.40;99.90
28773;DHT22;15925;51.222;5.678;2022-11-10T02:52:53;10.40;99.90
28773;DHT22;15925;51.222;5.678;2022-11-10T02:55:37;10.30;99.90
28773;DHT22;15925;51.222;5.678;2022-11-10T02:58:22;10.30;99.90
28773;DHT22;15925;51.222;5.678;2022-11-10T03:01:06;10.30;99.90
28773;DHT22;15925;51.222;5.678;2022-11-10T03:03:50;10.30;99.90
28773;DHT22;15925;51.222;5.678;2022-11-10T03:06:34;10.30;99.90
28773;DHT22;15925;51.222;5.678;2022-11-10T03:09:19;10.40;99.90
28773;DHT22;15925;51.222;5.678;2022-11-10T03:12:03;10.30;99.90
28773;DHT22;15925;51.222;5.678;2022-11-10T03:14:47;10.30;99.90
28773;DHT22;15925;51.222;5.678;2022-11-10T03:17:31;10.30;99.90
28773;DHT22;15925;51.222;5.678;2022-11-10T03:20:15;10.30;99.90
28773;DHT22;15925;51.222;5.678;2022-11-10T03:23:02;10.30;99.90
28773;DHT22;15925;51.222;5.678;2022-11-10T03:25:46;10.20;99.90
28773;DHT22;15925;51.222;5.678;2022-11-10T03:28:30;10.30;99.90
28773;DHT22;15925;51.222;5.678;2022-11-10T03:31:14;10.30;99.90
28773;DHT22;15925;51.222;5.678;2022-11-10T03:33:58;10.30;99.90
28773;DHT22;15925;51.222;5.678;2022-11-10T03:36:42;10.20;99.90
28773;DHT22;15925;51.222;5.678;2022-11-10T03:39:27;10.20;99.90
28773;DHT22;15925;51.222;5.678;2022-11-10T03:42:11;10.30;99.90
28773;DHT22;15925;51.222;5.678;2022-11-10T03:44:56;10.20;99.90
28773;DHT22;15925;51.222;5.678;2022-11-10T03:47:43;10.30;99.90
28773;DHT22;15925;51.222;5.678;2022-11-10T03:50:27;10.20;99.90
28773;DHT22;15925;51.222;5.678;2022-11-10T03:53:12;10.20;99.90
28773;DHT22;15925;51.222;5.678;2022-11-10T03:55:59;10.20;99.90
28773;DHT22;15925;51.222;5.678;2022-11-10T03:58:44;10.20;99.90
28773;DHT22;15925;51.222;5.678;2022-11-10T04:01:28;10.20;99.90
28773;DHT22;15925;51.222;5.678;2022-11-10T04:04:12;10.20;99.90
28773;DHT22;15925;51.222;5.678;2022-11-10T04:07:17;10.20;99.90
28773;DHT22;15925;51.222;5.678;2022-11-10T04:10:20;10.20;99.90
28773;DHT22;15925;51.222;5.678;2022-11-10T04:13:05;10.20;99.90
28773;DHT22;15925;51.222;5.678;2022-11-10T04:16:08;10.20;99.90
28773;DHT22;15925;51.222;5.678;2022-11-10T04:18:52;10.20;99.90
28773;DHT22;15925;51.222;5.678;2022-11-10T04:21:37;10.20;99.90
28773;DHT22;15925;51.222;5.678;2022-11-10T04:24:21;10.20;99.90
28773;DHT22;15925;51.222;5.678;2022-11-10T04:27:05;10.20;99.90
28773;DHT22;15925;51.222;5.678;2022-11-10T04:29:49;10.20;99.90
28773;DHT22;15925;51.222;5.678;2022-11-10T04:32:33;10.20;99.90
28773;DHT22;15925;51.222;5.678;2022-11-10T04:35:18;10.20;99.90
28773;DHT22;15925;51.222;5.678;2022-11-10T04:38:02;10.10;99.90
28773;DHT22;15925;51.222;5.678;2022-11-10T04:40:46;10.20;99.90
28773;DHT22;15925;51.222;5.678;2022-11-10T04:43:31;10.10;99.90
28773;DHT22;15925;51.222;5.678;2022-11-10T04:49:09;10.10;99.90
28773;DHT22;15925;51.222;5.678;2022-11-10T04:51:53;10.10;99.90
28773;DHT22;15925;51.222;5.678;2022-11-10T04:54:37;10.10;99.90
28773;DHT22;15925;51.222;5.678;2022-11-10T04:57:21;10.10;99.90
28773;DHT22;15925;51.222;5.678;2022-11-10T05:00:06;10.10;99.90
28773;DHT22;15925;51.222;5.678;2022-11-10T05:02:50;10.10;99.90
28773;DHT22;15925;51.222;5.678;2022-11-10T05:05:35;10.10;99.90
28773;DHT22;15925;51.222;5.678;2022-11-10T05:08:19;10.10;99.90
28773;DHT22;15925;51.222;5.678;2022-11-10T05:11:04;10.10;99.90
28773;DHT22;15925;51.222;5.678;2022-11-10T05:13:52;10.10;99.90
28773;DHT22;15925;51.222;5.678;2022-11-10T05:16:36;10.10;99.90
28773;DHT22;15925;51.222;5.678;2022-11-10T05:19:21;10.10;99.90
28773;DHT22;15925;51.222;5.678;2022-11-10T05:22:05;10.10;99.90
28773;DHT22;15925;51.222;5.678;2022-11-10T05:24:50;10.10;99.90
28773;DHT22;15925;51.222;5.678;2022-11-10T05:27:34;10.10;99.90
28773;DHT22;15925;51.222;5.678;2022-11-10T05:30:19;10.10;99.90
28773;DHT22;15925;51.222;5.678;2022-11-10T05:33:03;10.20;99.90
28773;DHT22;15925;51.222;5.678;2022-11-10T05:35:48;10.20;99.90
28773;DHT22;15925;51.222;5.678;2022-11-10T05:38:33;10.20;99.90
28773;DHT22;15925;51.222;5.678;2022-11-10T05:41:17;10.20;99.90
28773;DHT22;15925;51.222;5.678;2022-11-10T05:44:01;10.20;99.90
28773;DHT22;15925;51.222;5.678;2022-11-10T05:46:46;10.20;99.90
28773;DHT22;15925;51.222;5.678;2022-11-10T05:49:31;10.20;99.90
28773;DHT22;15925;51.222;5.678;2022-11-10T05:52:15;10.20;99.90
28773;DHT22;15925;51.222;5.678;2022-11-10T05:54:59;10.20;99.90
28773;DHT22;15925;51.222;5.678;2022-11-10T05:57:46;10.20;99.90
28773;DHT22;15925;51.222;5.678;2022-11-10T06:00:31;10.20;99.90
28773;DHT22;15925;51.222;5.678;2022-11-10T06:03:17;10.20;99.90
28773;DHT22;15925;51.222;5.678;2022-11-10T06:06:03;10.10;99.90
28773;DHT22;15925;51.222;5.678;2022-11-10T06:08:47;10.20;99.90
28773;DHT22;15925;51.222;5.678;2022-11-10T06:11:32;10.20;99.90
28773;DHT22;15925;51.222;5.678;2022-11-10T06:14:16;10.20;99.90
28773;DHT22;15925;51.222;5.678;2022-11-10T06:17:00;10.20;99.90
28773;DHT22;15925;51.222;5.678;2022-11-10T06:19:45;10.20;99.90
28773;DHT22;15925;51.222;5.678;2022-11-10T06:22:29;10.20;99.90
28773;DHT22;15925;51.222;5.678;2022-11-10T06:25:14;10.20;99.90
28773;DHT22;15925;51.222;5.678;2022-11-10T06:27:58;10.20;99.90
28773;DHT22;15925;51.222;5.678;2022-11-10T06:30:42;10.10;99.90
28773;DHT22;15925;51.222;5.678;2022-11-10T06:33:26;10.20;99.90
28773;DHT22;15925;51.222;5.678;2022-11-10T06:36:11;10.20;99.90
28773;DHT22;15925;51.222;5.678;2022-11-10T06:38:55;10.10;99.90
28773;DHT22;15925;51.222;5.678;2022-11-10T06:41:39;10.20;99.90
28773;DHT22;15925;51.222;5.678;2022-11-10T06:44:23;10.10;99.90
28773;DHT22;15925;51.222;5.678;2022-11-10T06:47:07;10.10;99.90
28773;DHT22;15925;51.222;5.678;2022-11-10T06:49:52;10.10;99.90
28773;DHT22;15925;51.222;5.678;2022-11-10T06:52:36;10.10;99.90
28773;DHT22;15925;51.222;5.678;2022-11-10T06:55:20;10.00;99.90
28773;DHT22;15925;51.222;5.678;2022-11-10T06:58:04;10.00;99.90
28773;DHT22;15925;51.222;5.678;2022-11-10T07:00:49;10.10;99.90
28773;DHT22;15925;51.222;5.678;2022-11-10T07:03:33;10.10;99.90
28773;DHT22;15925;51.222;5.678;2022-11-10T07:06:19;10.00;99.90
28773;DHT22;15925;51.222;5.678;2022-11-10T07:09:04;10.10;99.90
28773;DHT22;15925;51.222;5.678;2022-11-10T07:11:49;10.10;99.90
28773;DHT22;15925;51.222;5.678;2022-11-10T07:14:34;10.10;99.90
28773;DHT22;15925;51.222;5.678;2022-11-10T07:17:18;10.10;99.90
28773;DHT22;15925;51.222;5.678;2022-11-10T07:20:03;10.10;99.90
28773;DHT22;15925;51.222;5.678;2022-11-10T07:22:48;10.10;99.90
28773;DHT22;15925;51.222;5.678;2022-11-10T07:25:34;10.10;99.90
28773;DHT22;15925;51.222;5.678;2022-11-10T07:28:19;10.10;99.90
28773;DHT22;15925;51.222;5.678;2022-11-10T07:31:03;10.10;99.90
28773;DHT22;15925;51.222;5.678;2022-11-10T07:33:48;10.20;99.90
28773;DHT22;15925;51.222;5.678;2022-11-10T07:36:32;10.20;99.90
28773;DHT22;15925;51.222;5.678;2022-11-10T07:39:16;10.20;99.90
28773;DHT22;15925;51.222;5.678;2022-11-10T07:42:01;10.20;99.90
28773;DHT22;15925;51.222;5.678;2022-11-10T07:44:45;10.20;99.90
28773;DHT22;15925;51.222;5.678;2022-11-10T07:47:29;10.20;99.90
28773;DHT22;15925;51.222;5.678;2022-11-10T07:50:14;10.30;99.90
28773;DHT22;15925;51.222;5.678;2022-11-10T07:53:06;10.30;99.90
28773;DHT22;15925;51.222;5.678;2022-11-10T07:55:51;10.30;99.90
28773;DHT22;15925;51.222;5.678;2022-11-10T07:58:35;10.30;99.90
28773;DHT22;15925;51.222;5.678;2022-11-10T08:01:19;10.30;99.90
28773;DHT22;15925;51.222;5.678;2022-11-10T08:04:04;10.30;99.90
28773;DHT22;15925;51.222;5.678;2022-11-10T08:06:48;10.40;99.90
28773;DHT22;15925;51.222;5.678;2022-11-10T08:09:32;10.40;99.90
28773;DHT22;15925;51.222;5.678;2022-11-10T08:12:17;10.40;99.90
28773;DHT22;15925;51.222;5.678;2022-11-10T08:15:02;10.40;99.90
28773;DHT22;15925;51.222;5.678;2022-11-10T08:17:47;10.40;99.90
28773;DHT22;15925;51.222;5.678;2022-11-10T08:20:32;10.40;99.90
28773;DHT22;15925;51.222;5.678;2022-11-10T08:23:16;10.50;99.90
28773;DHT22;15925;51.222;5.678;2022-11-10T08:26:01;10.50;99.90
28773;DHT22;15925;51.222;5.678;2022-11-10T08:28:45;10.60;99.90
28773;DHT22;15925;51.222;5.678;2022-11-10T08:31:31;10.60;99.90
28773;DHT22;15925;51.222;5.678;2022-11-10T08:34:16;10.70;99.90
28773;DHT22;15925;51.222;5.678;2022-11-10T08:37:00;10.70;99.90
28773;DHT22;15925;51.222;5.678;2022-11-10T08:39:45;10.80;99.90
28773;DHT22;15925;51.222;5.678;2022-11-10T08:42:29;10.80;99.90
28773;DHT22;15925;51.222;5.678;2022-11-10T08:45:14;10.90;99.90
28773;DHT22;15925;51.222;5.678;2022-11-10T08:48:03;11.00;99.90
28773;DHT22;15925;51.222;5.678;2022-11-10T08:50:48;11.00;99.90
28773;DHT22;15925;51.222;5.678;2022-11-10T08:53:33;11.10;99.90
28773;DHT22;15925;51.222;5.678;2022-11-10T08:56:17;11.20;99.90
28773;DHT22;15925;51.222;5.678;2022-11-10T08:59:02;11.30;99.90
28773;DHT22;15925;51.222;5.678;2022-11-10T09:01:46;11.30;99.90
28773;DHT22;15925;51.222;5.678;2022-11-10T09:04:31;11.40;99.90
28773;DHT22;15925;51.222;5.678;2022-11-10T09:07:15;11.50;99.90
28773;DHT22;15925;51.222;5.678;2022-11-10T09:09:59;11.60;99.90
28773;DHT22;15925;51.222;5.678;2022-11-10T09:12:44;11.60;99.90
28773;DHT22;15925;51.222;5.678;2022-11-10T09:15:29;11.70;99.90
28773;DHT22;15925;51.222;5.678;2022-11-10T09:18:14;11.80;99.90
28773;DHT22;15925;51.222;5.678;2022-11-10T09:21:00;11.80;99.90
28773;DHT22;15925;51.222;5.678;2022-11-10T09:23:45;11.90;99.90
28773;DHT22;15925;51.222;5.678;2022-11-10T09:26:31;12.00;99.90
28773;DHT22;15925;51.222;5.678;2022-11-10T09:29:15;12.10;99.90
28773;DHT22;15925;51.222;5.678;2022-11-10T09:32:00;12.10;99.90
28773;DHT22;15925;51.222;5.678;2022-11-10T09:34:44;12.20;99.90
28773;DHT22;15925;51.222;5.678;2022-11-10T09:37:29;12.30;99.90
28773;DHT22;15925;51.222;5.678;2022-11-10T09:40:58;12.40;99.90
28773;DHT22;15925;51.222;5.678;2022-11-10T09:44:15;12.40;99.90
28773;DHT22;15925;51.222;5.678;2022-11-10T09:47:12;12.50;99.90
28773;DHT22;15925;51.222;5.678;2022-11-10T09:49:59;12.60;99.90
28773;DHT22;15925;51.222;5.678;2022-11-10T09:52:46;12.70;99.90
28773;DHT22;15925;51.222;5.678;2022-11-10T09:56:02;12.80;99.90
28773;DHT22;15925;51.222;5.678;2022-11-10T09:58:47;12.80;99.90
28773;DHT22;15925;51.222;5.678;2022-11-10T10:01:48;12.90;99.90
28773;DHT22;15925;51.222;5.678;2022-11-10T10:08:14;13.10;99.90
28773;DHT22;15925;51.222;5.678;2022-11-10T10:11:24;13.10;99.90
28773;DHT22;15925;51.222;5.678;2022-11-10T10:17:27;13.30;99.90
28773;DHT22;15925;51.222;5.678;2022-11-10T10:20:44;13.40;99.90
28773;DHT22;15925;51.222;5.678;2022-11-10T10:23:36;13.40;99.90
28773;DHT22;15925;51.222;5.678;2022-11-10T10:26:25;13.50;99.90
28773;DHT22;15925;51.222;5.678;2022-11-10T10:29:15;13.50;99.90
28773;DHT22;15925;51.222;5.678;2022-11-10T10:32:03;13.60;99.90
28773;DHT22;15925;51.222;5.678;2022-11-10T10:34:47;13.70;99.90
28773;DHT22;15925;51.222;5.678;2022-11-10T10:37:44;13.80;99.90
28773;DHT22;15925;51.222;5.678;2022-11-10T10:40:29;13.90;99.90
28773;DHT22;15925;51.222;5.678;2022-11-10T10:43:13;13.90;99.90
28773;DHT22;15925;51.222;5.678;2022-11-10T10:46:11;14.00;99.90
28773;DHT22;15925;51.222;5.678;2022-11-10T10:49:26;14.00;99.90
28773;DHT22;15925;51.222;5.678;2022-11-10T10:52:15;14.10;99.90
28773;DHT22;15925;51.222;5.678;2022-11-10T10:55:05;14.20;99.90
28773;DHT22;15925;51.222;5.678;2022-11-10T10:57:54;14.30;99.90
28773;DHT22;15925;51.222;5.678;2022-11-10T11:00:45;14.30;99.90
28773;DHT22;15925;51.222;5.678;2022-11-10T11:03:37;14.30;99.90
28773;DHT22;15925;51.222;5.678;2022-11-10T11:06:32;14.40;99.90
28773;DHT22;15925;51.222;5.678;2022-11-10T11:09:22;14.40;99.90
28773;DHT22;15925;51.222;5.678;2022-11-10T11:12:24;14.50;99.90
28773;DHT22;15925;51.222;5.678;2022-11-10T11:15:18;14.50;99.90
28773;DHT22;15925;51.222;5.678;2022-11-10T11:18:15;14.60;99.90
28773;DHT22;15925;51.222;5.678;2022-11-10T11:30:16;14.80;99.90
28773;DHT22;15925;51.222;5.678;2022-11-10T11:33:24;14.80;99.90
28773;DHT22;15925;51.222;5.678;2022-11-10T11:36:27;14.90;99.90
28773;DHT22;15925;51.222;5.678;2022-11-10T11:42:44;15.00;99.90
28773;DHT22;15925;51.222;5.678;2022-11-10T11:49:01;15.10;99.90
28773;DHT22;15925;51.222;5.678;2022-11-10T11:58:21;15.20;99.90
28773;DHT22;15925;51.222;5.678;2022-11-10T12:10:18;15.30;99.90
28773;DHT22;15925;51.222;5.678;2022-11-10T12:13:26;15.30;99.90
28773;DHT22;15925;51.222;5.678;2022-11-10T12:16:30;15.40;99.90
28773;DHT22;15925;51.222;5.678;2022-11-10T12:19:29;15.40;99.90
28773;DHT22;15925;51.222;5.678;2022-11-10T12:22:42;15.30;99.90
28773;DHT22;15925;51.222;5.678;2022-11-10T12:25:47;15.30;99.90
28773;DHT22;15925;51.222;5.678;2022-11-10T12:32:05;15.40;99.90
28773;DHT22;15925;51.222;5.678;2022-11-10T12:34:58;15.40;99.90
28773;DHT22;15925;51.222;5.678;2022-11-10T12:40:39;15.40;99.90
28773;DHT22;15925;51.222;5.678;2022-11-10T12:46:20;15.40;99.90
28773;DHT22;15925;51.222;5.678;2022-11-10T12:49:16;15.40;99.90
28773;DHT22;15925;51.222;5.678;2022-11-10T12:52:16;15.40;99.90
28773;DHT22;15925;51.222;5.678;2022-11-10T12:55:02;15.40;99.90
28773;DHT22;15925;51.222;5.678;2022-11-10T12:57:47;15.40;99.90
28773;DHT22;15925;51.222;5.678;2022-11-10T13:00:38;15.40;99.90
28773;DHT22;15925;51.222;5.678;2022-11-10T13:03:29;15.50;99.90
28773;DHT22;15925;51.222;5.678;2022-11-10T13:06:50;15.50;99.90
28773;DHT22;15925;51.222;5.678;2022-11-10T13:09:38;15.50;99.90
28773;DHT22;15925;51.222;5.678;2022-11-10T13:12:24;15.60;99.90
28773;DHT22;15925;51.222;5.678;2022-11-10T13:15:45;15.60;99.90
28773;DHT22;15925;51.222;5.678;2022-11-10T13:21:13;15.50;99.90
28773;DHT22;15925;51.222;5.678;2022-11-10T13:27:12;15.50;99.90
28773;DHT22;15925;51.222;5.678;2022-11-10T13:29:57;15.50;99.90
28773;DHT22;15925;51.222;5.678;2022-11-10T13:32:42;15.50;99.90
28773;DHT22;15925;51.222;5.678;2022-11-10T13:38:36;15.40;99.90
28773;DHT22;15925;51.222;5.678;2022-11-10T13:41:24;15.40;99.90
28773;DHT22;15925;51.222;5.678;2022-11-10T13:47:52;15.40;99.90
28773;DHT22;15925;51.222;5.678;2022-11-10T13:59:30;15.30;99.90
28773;DHT22;15925;51.222;5.678;2022-11-10T14:08:19;15.30;99.90
28773;DHT22;15925;51.222;5.678;2022-11-10T14:11:12;15.30;99.90
28773;DHT22;15925;51.222;5.678;2022-11-10T14:17:18;15.20;99.90
28773;DHT22;15925;51.222;5.678;2022-11-10T14:20:16;15.20;99.90
28773;DHT22;15925;51.222;5.678;2022-11-10T14:23:04;15.20;99.90
28773;DHT22;15925;51.222;5.678;2022-11-10T14:26:01;15.20;99.90
28773;DHT22;15925;51.222;5.678;2022-11-10T14:28:46;15.20;99.90
28773;DHT22;15925;51.222;5.678;2022-11-10T14:31:31;15.20;99.90
28773;DHT22;15925;51.222;5.678;2022-11-10T14:34:19;15.20;99.90
28773;DHT22;15925;51.222;5.678;2022-11-10T14:37:23;15.20;99.90
28773;DHT22;15925;51.222;5.678;2022-11-10T14:40:13;15.10;99.90
28773;DHT22;15925;51.222;5.678;2022-11-10T14:42:58;15.10;99.90
28773;DHT22;15925;51.222;5.678;2022-11-10T14:45:49;15.10;99.90
28773;DHT22;15925;51.222;5.678;2022-11-10T14:48:36;15.10;99.90
28773;DHT22;15925;51.222;5.678;2022-11-10T14:51:21;15.10;99.90
28773;DHT22;15925;51.222;5.678;2022-11-10T14:54:11;15.10;99.90
28773;DHT22;15925;51.222;5.678;2022-11-10T14:56:59;15.00;99.90
28773;DHT22;15925;51.222;5.678;2022-11-10T14:59:43;15.00;99.90
28773;DHT22;15925;51.222;5.678;2022-11-10T15:02:27;15.00;99.90
28773;DHT22;15925;51.222;5.678;2022-11-10T15:05:13;15.10;99.90
28773;DHT22;15925;51.222;5.678;2022-11-10T15:07:59;15.00;99.90
28773;DHT22;15925;51.222;5.678;2022-11-10T15:10:49;15.00;99.90
28773;DHT22;15925;51.222;5.678;2022-11-10T15:13:37;15.00;99.90
28773;DHT22;15925;51.222;5.678;2022-11-10T15:16:32;15.00;99.90
28773;DHT22;15925;51.222;5.678;2022-11-10T15:22:32;15.00;99.90
28773;DHT22;15925;51.222;5.678;2022-11-10T15:25:20;14.90;99.90
28773;DHT22;15925;51.222;5.678;2022-11-10T15:28:30;14.90;99.90
28773;DHT22;15925;51.222;5.678;2022-11-10T15:31:23;14.80;99.90
28773;DHT22;15925;51.222;5.678;2022-11-10T15:34:38;14.80;99.90
28773;DHT22;15925;51.222;5.678;2022-11-10T15:37:29;14.70;99.90
28773;DHT22;15925;51.222;5.678;2022-11-10T15:46:12;14.60;99.90
28773;DHT22;15925;51.222;5.678;2022-11-10T15:48:57;14.50;99.90
28773;DHT22;15925;51.222;5.678;2022-11-10T15:51:41;14.50;99.90
28773;DHT22;15925;51.222;5.678;2022-11-10T15:54:28;14.50;99.90
28773;DHT22;15925;51.222;5.678;2022-11-10T15:57:15;14.50;99.90
28773;DHT22;15925;51.222;5.678;2022-11-10T16:00:00;14.40;99.90
28773;DHT22;15925;51.222;5.678;2022-11-10T16:02:44;14.40;99.90
28773;DHT22;15925;51.222;5.678;2022-11-10T16:05:28;14.40;99.90
28773;DHT22;15925;51.222;5.678;2022-11-10T16:08:18;14.30;99.90
28773;DHT22;15925;51.222;5.678;2022-11-10T16:11:04;14.30;99.90
28773;DHT22;15925;51.222;5.678;2022-11-10T16:13:49;14.20;99.90
28773;DHT22;15925;51.222;5.678;2022-11-10T16:16:34;14.20;99.90
28773;DHT22;15925;51.222;5.678;2022-11-10T16:19:20;14.10;99.90
28773;DHT22;15925;51.222;5.678;2022-11-10T16:22:04;14.10;99.90
28773;DHT22;15925;51.222;5.678;2022-11-10T16:24:48;14.00;99.90
28773;DHT22;15925;51.222;5.678;2022-11-10T16:27:33;13.90;99.90
28773;DHT22;15925;51.222;5.678;2022-11-10T16:30:18;14.00;99.90
28773;DHT22;15925;51.222;5.678;2022-11-10T16:33:02;13.90;99.90
28773;DHT22;15925;51.222;5.678;2022-11-10T16:35:51;13.90;99.90
28773;DHT22;15925;51.222;5.678;2022-11-10T16:38:37;13.90;99.90
28773;DHT22;15925;51.222;5.678;2022-11-10T16:41:21;13.80;99.90
28773;DHT22;15925;51.222;5.678;2022-11-10T16:44:13;13.80;99.90
28773;DHT22;15925;51.222;5.678;2022-11-10T16:46:58;13.70;99.90
28773;DHT22;15925;51.222;5.678;2022-11-10T16:49:43;13.70;99.90
28773;DHT22;15925;51.222;5.678;2022-11-10T16:52:28;13.60;99.90
28773;DHT22;15925;51.222;5.678;2022-11-10T16:55:12;13.60;99.90
28773;DHT22;15925;51.222;5.678;2022-11-10T16:57:57;13.60;99.90
28773;DHT22;15925;51.222;5.678;2022-11-10T17:00:42;13.60;99.90
28773;DHT22;15925;51.222;5.678;2022-11-10T17:06:17;13.50;99.90
28773;DHT22;15925;51.222;5.678;2022-11-10T17:09:22;13.40;99.90
28773;DHT22;15925;51.222;5.678;2022-11-10T17:12:12;13.40;99.90
28773;DHT22;15925;51.222;5.678;2022-11-10T17:14:57;13.40;99.90
28773;DHT22;15925;51.222;5.678;2022-11-10T17:17:47;13.40;99.90
28773;DHT22;15925;51.222;5.678;2022-11-10T17:20:34;13.40;99.90
28773;DHT22;15925;51.222;5.678;2022-11-10T17:23:22;13.40;99.90
28773;DHT22;15925;51.222;5.678;2022-11-10T17:26:12;13.40;99.90
28773;DHT22;15925;51.222;5.678;2022-11-10T17:28:57;13.30;99.90
28773;DHT22;15925;51.222;5.678;2022-11-10T17:31:42;13.30;99.90
28773;DHT22;15925;51.222;5.678;2022-11-10T17:34:27;13.30;99.90
28773;DHT22;15925;51.222;5.678;2022-11-10T17:37:12;13.30;99.90
28773;DHT22;15925;51.222;5.678;2022-11-10T17:39:57;13.30;99.90
28773;DHT22;15925;51.222;5.678;2022-11-10T17:42:41;13.30;99.90
28773;DHT22;15925;51.222;5.678;2022-11-10T17:45:26;13.20;99.90
28773;DHT22;15925;51.222;5.678;2022-11-10T17:48:11;13.20;99.90
28773;DHT22;15925;51.222;5.678;2022-11-10T17:50:55;13.10;99.90
28773;DHT22;15925;51.222;5.678;2022-11-10T17:53:41;13.10;99.90
28773;DHT22;15925;51.222;5.678;2022-11-10T17:56:26;13.10;99.90
28773;DHT22;15925;51.222;5.678;2022-11-10T17:59:10;13.10;99.90
28773;DHT22;15925;51.222;5.678;2022-11-10T18:01:54;13.00;99.90
28773;DHT22;15925;51.222;5.678;2022-11-10T18:04:38;13.00;99.90
28773;DHT22;15925;51.222;5.678;2022-11-10T18:07:23;13.00;99.90
28773;DHT22;15925;51.222;5.678;2022-11-10T18:10:13;12.90;99.90
28773;DHT22;15925;51.222;5.678;2022-11-10T18:12:58;12.90;99.90
28773;DHT22;15925;51.222;5.678;2022-11-10T18:15:43;12.80;99.90
28773;DHT22;15925;51.222;5.678;2022-11-10T18:18:29;12.80;99.90
28773;DHT22;15925;51.222;5.678;2022-11-10T18:21:13;12.80;99.90
28773;DHT22;15925;51.222;5.678;2022-11-10T18:23:58;12.80;99.90
28773;DHT22;15925;51.222;5.678;2022-11-10T18:26:42;12.70;99.90
28773;DHT22;15925;51.222;5.678;2022-11-10T18:29:27;12.70;99.90
28773;DHT22;15925;51.222;5.678;2022-11-10T18:32:11;12.70;99.90
28773;DHT22;15925;51.222;5.678;2022-11-10T18:34:55;12.70;99.90
28773;DHT22;15925;51.222;5.678;2022-11-10T18:37:39;12.70;99.90
28773;DHT22;15925;51.222;5.678;2022-11-10T18:40:24;12.60;99.90
28773;DHT22;15925;51.222;5.678;2022-11-10T18:43:08;12.60;99.90
28773;DHT22;15925;51.222;5.678;2022-11-10T18:45:52;12.60;99.90
28773;DHT22;15925;51.222;5.678;2022-11-10T18:48:37;12.50;99.90
28773;DHT22;15925;51.222;5.678;2022-11-10T18:51:22;12.50;99.90
28773;DHT22;15925;51.222;5.678;2022-11-10T18:54:06;12.50;99.90
28773;DHT22;15925;51.222;5.678;2022-11-10T18:56:51;12.50;99.90
28773;DHT22;15925;51.222;5.678;2022-11-10T18:59:36;12.40;99.90
28773;DHT22;15925;51.222;5.678;2022-11-10T19:02:20;12.40;99.90
28773;DHT22;15925;51.222;5.678;2022-11-10T19:05:04;12.30;99.90
28773;DHT22;15925;51.222;5.678;2022-11-10T19:07:49;12.40;99.90
28773;DHT22;15925;51.222;5.678;2022-11-10T19:10:33;12.30;99.90